sensor_id;sensor_type;location;lat;lon;timestamp;temperature;humidity
45535;DHT22;35892;48.798;9.698;2023-01-06T00:01:37;8.90;99.90
45535;DHT22;35892;48.798;9.698;2023-01-06T00:04:04;8.90;99.90
45535;DHT22;35892;48.798;9.698;2023-01-06T00:06:33;8.90;99.90
45535;DHT22;35892;48.798;9.698;2023-01-06T00:09:03;8.90;99.90
45535;DHT22;35892;48.798;9.698;2023-01-06T00:11:31;9.00;99.90
45535;DHT22;35892;48.798;9.698;2023-01-06T00:14:03;9.00;99.90
45535;DHT22;35892;48.798;9.698;2023-01-06T00:16:29;9.00;99.90
45535;DHT22;35892;48.798;9.698;2023-01-06T00:19:02;9.00;99.90
45535;DHT22;35892;48.798;9.698;2023-01-06T00:21:29;9.00;99.90
45535;DHT22;35892;48.798;9.698;2023-01-06T00:23:58;9.00;99.90
45535;DHT22;35892;48.798;9.698;2023-01-06T00:26:25;9.00;99.90
45535;DHT22;35892;48.798;9.698;2023-01-06T00:28:55;9.00;99.90
45535;DHT22;35892;48.798;9.698;2023-01-06T00:31:24;9.00;99.90
45535;DHT22;35892;48.798;9.698;2023-01-06T00:33:56;9.00;99.90
45535;DHT22;35892;48.798;9.698;2023-01-06T00:36:23;9.00;99.90
45535;DHT22;35892;48.798;9.698;2023-01-06T00:38:53;8.90;99.90
45535;DHT22;35892;48.798;9.698;2023-01-06T00:41:22;9.00;99.90
45535;DHT22;35892;48.798;9.698;2023-01-06T00:44:12;9.00;99.90
45535;DHT22;35892;48.798;9.698;2023-01-06T00:46:39;9.00;99.90
45535;DHT22;35892;48.798;9.698;2023-01-06T00:49:06;9.00;99.90
45535;DHT22;35892;48.798;9.698;2023-01-06T00:51:39;9.10;99.90
45535;DHT22;35892;48.798;9.698;2023-01-06T00:54:12;9.10;99.90
45535;DHT22;35892;48.798;9.698;2023-01-06T00:56:41;9.00;99.90
45535;DHT22;35892;48.798;9.698;2023-01-06T00:59:09;9.00;99.90
45535;DHT22;35892;48.798;9.698;2023-01-06T01:01:39;9.00;99.90
45535;DHT22;35892;48.798;9.698;2023-01-06T01:04:09;9.00;99.90
45535;DHT22;35892;48.798;9.698;2023-01-06T01:06:36;9.00;99.90
45535;DHT22;35892;48.798;9.698;2023-01-06T01:09:06;8.90;99.90
45535;DHT22;35892;48.798;9.698;2023-01-06T01:11:37;8.90;99.90
45535;DHT22;35892;48.798;9.698;2023-01-06T01:14:23;8.90;99.90
45535;DHT22;35892;48.798;9.698;2023-01-06T01:16:50;8.90;99.90
45535;DHT22;35892;48.798;9.698;2023-01-06T01:19:22;8.90;99.90
45535;DHT22;35892;48.798;9.698;2023-01-06T01:21:49;8.80;99.90
45535;DHT22;35892;48.798;9.698;2023-01-06T01:24:16;8.90;99.90
45535;DHT22;35892;48.798;9.698;2023-01-06T01:26:43;8.80;99.90
45535;DHT22;35892;48.798;9.698;2023-01-06T01:29:18;8.80;99.90
45535;DHT22;35892;48.798;9.698;2023-01-06T01:31:46;8.80;99.90
45535;DHT22;35892;48.798;9.698;2023-01-06T01:34:18;8.80;99.90
45535;DHT22;35892;48.798;9.698;2023-01-06T01:36:47;8.80;99.90
45535;DHT22;35892;48.798;9.698;2023-01-06T01:39:15;8.80;99.90
45535;DHT22;35892;48.798;9.698;2023-01-06T01:41:45;8.80;99.90
45535;DHT22;35892;48.798;9.698;2023-01-06T01:50:55;8.70;99.90
45535;DHT22;35892;48.798;9.698;2023-01-06T01:53:06;8.70;99.90
45535;DHT22;35892;48.798;9.698;2023-01-06T01:55:36;8.60;99.90
45535;DHT22;35892;48.798;9.698;2023-01-06T01:58:26;8.70;99.90
45535;DHT22;35892;48.798;9.698;2023-01-06T02:00:56;8.60;99.90
45535;DHT22;35892;48.798;9.698;2023-01-06T02:03:26;8.60;99.90
45535;DHT22;35892;48.798;9.698;2023-01-06T02:05:58;8.60;99.90
45535;DHT22;35892;48.798;9.698;2023-01-06T02:08:38;8.70;99.90
45535;DHT22;35892;48.798;9.698;2023-01-06T02:11:06;8.70;99.90
45535;DHT22;35892;48.798;9.698;2023-01-06T02:13:35;8.70;99.90
45535;DHT22;35892;48.798;9.698;2023-01-06T02:16:23;8.60;99.90
45535;DHT22;35892;48.798;9.698;2023-01-06T02:19:04;8.60;99.90
45535;DHT22;35892;48.798;9.698;2023-01-06T02:39:15;8.40;99.90
45535;DHT22;35892;48.798;9.698;2023-01-06T02:47:03;8.20;99.90
45535;DHT22;35892;48.798;9.698;2023-01-06T02:52:41;8.10;99.90
45535;DHT22;35892;48.798;9.698;2023-01-06T02:55:22;8.10;99.90
45535;DHT22;35892;48.798;9.698;2023-01-06T02:58:03;8.10;99.90
45535;DHT22;35892;48.798;9.698;2023-01-06T03:00:38;8.00;99.90
45535;DHT22;35892;48.798;9.698;2023-01-06T03:03:14;8.00;99.90
45535;DHT22;35892;48.798;9.698;2023-01-06T03:05:44;8.00;99.90
45535;DHT22;35892;48.798;9.698;2023-01-06T03:08:25;8.00;99.90
45535;DHT22;35892;48.798;9.698;2023-01-06T03:10:53;8.10;99.90
45535;DHT22;35892;48.798;9.698;2023-01-06T03:16:01;8.10;99.90
45535;DHT22;35892;48.798;9.698;2023-01-06T03:18:29;8.10;99.90
45535;DHT22;35892;48.798;9.698;2023-01-06T03:20:58;8.10;99.90
45535;DHT22;35892;48.798;9.698;2023-01-06T03:23:34;8.10;99.90
45535;DHT22;35892;48.798;9.698;2023-01-06T03:26:03;8.10;99.90
45535;DHT22;35892;48.798;9.698;2023-01-06T03:28:35;8.20;99.90
45535;DHT22;35892;48.798;9.698;2023-01-06T03:39:33;8.20;99.90
45535;DHT22;35892;48.798;9.698;2023-01-06T03:51:07;8.20;99.90
45535;DHT22;35892;48.798;9.698;2023-01-06T03:59:20;8.30;99.90
45535;DHT22;35892;48.798;9.698;2023-01-06T04:01:49;8.30;99.90
45535;DHT22;35892;48.798;9.698;2023-01-06T04:04:17;8.30;99.90
45535;DHT22;35892;48.798;9.698;2023-01-06T04:06:46;8.30;99.90
45535;DHT22;35892;48.798;9.698;2023-01-06T04:09:16;8.30;99.90
45535;DHT22;35892;48.798;9.698;2023-01-06T04:11:42;8.40;99.90
45535;DHT22;35892;48.798;9.698;2023-01-06T04:14:30;8.40;99.90
45535;DHT22;35892;48.798;9.698;2023-01-06T04:17:04;8.40;99.90
45535;DHT22;35892;48.798;9.698;2023-01-06T04:19:33;8.30;99.90
45535;DHT22;35892;48.798;9.698;2023-01-06T04:22:00;8.30;99.90
45535;DHT22;35892;48.798;9.698;2023-01-06T04:24:28;8.30;99.90
45535;DHT22;35892;48.798;9.698;2023-01-06T04:26:55;8.40;99.90
45535;DHT22;35892;48.798;9.698;2023-01-06T04:29:26;8.40;99.90
45535;DHT22;35892;48.798;9.698;2023-01-06T04:31:56;8.30;99.90
45535;DHT22;35892;48.798;9.698;2023-01-06T04:34:25;8.30;99.90
45535;DHT22;35892;48.798;9.698;2023-01-06T04:36:51;8.20;99.90
45535;DHT22;35892;48.798;9.698;2023-01-06T04:39:23;8.00;99.90
45535;DHT22;35892;48.798;9.698;2023-01-06T04:41:52;7.90;99.90
45535;DHT22;35892;48.798;9.698;2023-01-06T04:44:19;7.80;99.90
45535;DHT22;35892;48.798;9.698;2023-01-06T04:46:46;7.70;99.90
45535;DHT22;35892;48.798;9.698;2023-01-06T04:49:15;7.60;99.90
45535;DHT22;35892;48.798;9.698;2023-01-06T04:51:44;7.60;99.90
45535;DHT22;35892;48.798;9.698;2023-01-06T04:54:11;7.50;99.90
45535;DHT22;35892;48.798;9.698;2023-01-06T04:56:38;7.60;99.90
45535;DHT22;35892;48.798;9.698;2023-01-06T04:59:05;7.60;99.90
45535;DHT22;35892;48.798;9.698;2023-01-06T05:01:37;7.50;99.90
45535;DHT22;35892;48.798;9.698;2023-01-06T05:04:06;7.50;99.90
45535;DHT22;35892;48.798;9.698;2023-01-06T05:06:33;7.40;99.90
45535;DHT22;35892;48.798;9.698;2023-01-06T05:09:03;7.30;99.90
45535;DHT22;35892;48.798;9.698;2023-01-06T05:11:30;7.20;99.90
45535;DHT22;35892;48.798;9.698;2023-01-06T05:13:59;7.10;99.90
45535;DHT22;35892;48.798;9.698;2023-01-06T05:16:28;7.00;99.90
45535;DHT22;35892;48.798;9.698;2023-01-06T05:18:56;6.90;99.90
45535;DHT22;35892;48.798;9.698;2023-01-06T05:21:27;6.90;99.90
45535;DHT22;35892;48.798;9.698;2023-01-06T05:23:57;6.90;99.90
45535;DHT22;35892;48.798;9.698;2023-01-06T05:26:25;6.90;99.90
45535;DHT22;35892;48.798;9.698;2023-01-06T05:28:55;7.00;99.90
45535;DHT22;35892;48.798;9.698;2023-01-06T05:31:24;7.00;99.90
45535;DHT22;35892;48.798;9.698;2023-01-06T05:33:53;6.90;99.90
45535;DHT22;35892;48.798;9.698;2023-01-06T05:36:22;6.80;99.90
45535;DHT22;35892;48.798;9.698;2023-01-06T05:38:55;6.70;99.90
45535;DHT22;35892;48.798;9.698;2023-01-06T05:41:24;6.60;99.90
45535;DHT22;35892;48.798;9.698;2023-01-06T05:43:56;6.70;99.90
45535;DHT22;35892;48.798;9.698;2023-01-06T05:46:23;6.60;99.90
45535;DHT22;35892;48.798;9.698;2023-01-06T05:48:50;6.60;99.90
45535;DHT22;35892;48.798;9.698;2023-01-06T05:51:21;6.70;99.90
45535;DHT22;35892;48.798;9.698;2023-01-06T05:53:53;6.70;99.90
45535;DHT22;35892;48.798;9.698;2023-01-06T05:56:23;6.90;99.90
45535;DHT22;35892;48.798;9.698;2023-01-06T05:58:51;7.00;99.90
45535;DHT22;35892;48.798;9.698;2023-01-06T06:01:25;7.00;99.90
45535;DHT22;35892;48.798;9.698;2023-01-06T06:03:55;6.90;99.90
45535;DHT22;35892;48.798;9.698;2023-01-06T06:06:23;6.90;99.90
45535;DHT22;35892;48.798;9.698;2023-01-06T06:08:52;6.90;99.90
45535;DHT22;35892;48.798;9.698;2023-01-06T06:11:19;6.80;99.90
45535;DHT22;35892;48.798;9.698;2023-01-06T06:13:52;6.80;99.90
45535;DHT22;35892;48.798;9.698;2023-01-06T06:16:22;6.80;99.90
45535;DHT22;35892;48.798;9.698;2023-01-06T06:18:51;6.80;99.90
45535;DHT22;35892;48.798;9.698;2023-01-06T06:21:23;6.80;99.90
45535;DHT22;35892;48.798;9.698;2023-01-06T06:23:52;6.80;99.90
45535;DHT22;35892;48.798;9.698;2023-01-06T06:26:20;6.90;99.90
45535;DHT22;35892;48.798;9.698;2023-01-06T06:28:52;6.90;99.90
45535;DHT22;35892;48.798;9.698;2023-01-06T06:31:23;6.90;99.90
45535;DHT22;35892;48.798;9.698;2023-01-06T06:33:55;6.90;99.90
45535;DHT22;35892;48.798;9.698;2023-01-06T06:36:22;6.90;99.90
45535;DHT22;35892;48.798;9.698;2023-01-06T06:38:53;7.00;99.90
45535;DHT22;35892;48.798;9.698;2023-01-06T06:41:20;7.10;99.90
45535;DHT22;35892;48.798;9.698;2023-01-06T06:43:52;7.10;99.90
45535;DHT22;35892;48.798;9.698;2023-01-06T06:46:20;7.10;99.90
45535;DHT22;35892;48.798;9.698;2023-01-06T06:48:49;7.10;99.90
45535;DHT22;35892;48.798;9.698;2023-01-06T06:51:22;7.10;99.90
45535;DHT22;35892;48.798;9.698;2023-01-06T06:53:54;7.20;99.90
45535;DHT22;35892;48.798;9.698;2023-01-06T06:56:23;7.20;99.90
45535;DHT22;35892;48.798;9.698;2023-01-06T06:58:50;7.30;99.90
45535;DHT22;35892;48.798;9.698;2023-01-06T07:01:18;7.30;99.90
45535;DHT22;35892;48.798;9.698;2023-01-06T07:03:48;7.40;99.90
45535;DHT22;35892;48.798;9.698;2023-01-06T07:06:18;7.20;99.90
45535;DHT22;35892;48.798;9.698;2023-01-06T07:08:46;7.20;99.90
45535;DHT22;35892;48.798;9.698;2023-01-06T07:11:16;7.10;99.90
45535;DHT22;35892;48.798;9.698;2023-01-06T07:13:47;7.10;99.90
45535;DHT22;35892;48.798;9.698;2023-01-06T07:16:14;6.90;99.90
45535;DHT22;35892;48.798;9.698;2023-01-06T07:18:41;6.80;99.90
45535;DHT22;35892;48.798;9.698;2023-01-06T07:21:10;6.80;99.90
45535;DHT22;35892;48.798;9.698;2023-01-06T07:23:42;6.90;99.90
45535;DHT22;35892;48.798;9.698;2023-01-06T07:26:08;6.90;99.90
45535;DHT22;35892;48.798;9.698;2023-01-06T07:28:37;7.00;99.90
45535;DHT22;35892;48.798;9.698;2023-01-06T07:31:06;7.00;99.90
45535;DHT22;35892;48.798;9.698;2023-01-06T07:33:33;7.10;99.90
45535;DHT22;35892;48.798;9.698;2023-01-06T07:35:59;7.10;99.90
45535;DHT22;35892;48.798;9.698;2023-01-06T07:38:28;7.10;99.90
45535;DHT22;35892;48.798;9.698;2023-01-06T07:40:59;7.00;99.90
45535;DHT22;35892;48.798;9.698;2023-01-06T07:43:26;7.10;99.90
45535;DHT22;35892;48.798;9.698;2023-01-06T07:45:56;7.10;99.90
45535;DHT22;35892;48.798;9.698;2023-01-06T07:48:25;7.20;99.90
45535;DHT22;35892;48.798;9.698;2023-01-06T07:50:58;7.30;99.90
45535;DHT22;35892;48.798;9.698;2023-01-06T07:53:25;7.40;99.90
45535;DHT22;35892;48.798;9.698;2023-01-06T07:55:55;7.50;99.90
45535;DHT22;35892;48.798;9.698;2023-01-06T07:58:24;7.60;99.90
45535;DHT22;35892;48.798;9.698;2023-01-06T08:00:56;7.70;99.90
45535;DHT22;35892;48.798;9.698;2023-01-06T08:03:23;7.70;99.90
45535;DHT22;35892;48.798;9.698;2023-01-06T08:05:54;7.70;99.90
45535;DHT22;35892;48.798;9.698;2023-01-06T08:08:23;7.80;99.90
45535;DHT22;35892;48.798;9.698;2023-01-06T08:10:50;7.90;99.90
45535;DHT22;35892;48.798;9.698;2023-01-06T08:13:19;8.00;99.90
45535;DHT22;35892;48.798;9.698;2023-01-06T08:15:48;8.10;99.90
45535;DHT22;35892;48.798;9.698;2023-01-06T08:18:17;8.20;99.90
45535;DHT22;35892;48.798;9.698;2023-01-06T08:20:44;8.30;99.90
45535;DHT22;35892;48.798;9.698;2023-01-06T08:23:16;8.40;99.90
45535;DHT22;35892;48.798;9.698;2023-01-06T08:25:45;8.50;99.90
45535;DHT22;35892;48.798;9.698;2023-01-06T08:28:12;8.50;99.90
45535;DHT22;35892;48.798;9.698;2023-01-06T08:30:41;8.60;99.90
45535;DHT22;35892;48.798;9.698;2023-01-06T08:33:10;8.70;99.90
45535;DHT22;35892;48.798;9.698;2023-01-06T08:35:37;8.70;99.90
45535;DHT22;35892;48.798;9.698;2023-01-06T08:38:06;8.70;99.90
45535;DHT22;35892;48.798;9.698;2023-01-06T08:40:33;8.70;99.90
45535;DHT22;35892;48.798;9.698;2023-01-06T08:43:02;8.60;99.90
45535;DHT22;35892;48.798;9.698;2023-01-06T08:45:28;8.60;99.90
45535;DHT22;35892;48.798;9.698;2023-01-06T08:47:55;8.60;99.90
45535;DHT22;35892;48.798;9.698;2023-01-06T08:50:24;8.50;99.90
45535;DHT22;35892;48.798;9.698;2023-01-06T08:52:53;8.50;99.90
45535;DHT22;35892;48.798;9.698;2023-01-06T08:55:20;8.50;99.90
45535;DHT22;35892;48.798;9.698;2023-01-06T08:57:47;8.50;99.90
45535;DHT22;35892;48.798;9.698;2023-01-06T09:00:21;8.60;99.90
45535;DHT22;35892;48.798;9.698;2023-01-06T09:02:48;8.60;99.90
45535;DHT22;35892;48.798;9.698;2023-01-06T09:05:17;8.80;99.90
45535;DHT22;35892;48.798;9.698;2023-01-06T09:07:44;8.80;99.90
45535;DHT22;35892;48.798;9.698;2023-01-06T09:10:10;8.90;99.90
45535;DHT22;35892;48.798;9.698;2023-01-06T09:12:39;9.00;99.90
45535;DHT22;35892;48.798;9.698;2023-01-06T09:15:07;9.00;99.90
45535;DHT22;35892;48.798;9.698;2023-01-06T09:17:34;9.20;99.90
45535;DHT22;35892;48.798;9.698;2023-01-06T09:20:01;9.30;99.90
45535;DHT22;35892;48.798;9.698;2023-01-06T09:22:33;9.30;99.90
45535;DHT22;35892;48.798;9.698;2023-01-06T09:25:03;9.40;99.90
45535;DHT22;35892;48.798;9.698;2023-01-06T09:27:32;9.40;99.90
45535;DHT22;35892;48.798;9.698;2023-01-06T09:30:01;9.50;99.90
45535;DHT22;35892;48.798;9.698;2023-01-06T09:32:31;9.60;99.90
45535;DHT22;35892;48.798;9.698;2023-01-06T09:35:02;9.60;99.90
45535;DHT22;35892;48.798;9.698;2023-01-06T09:37:31;9.60;99.90
45535;DHT22;35892;48.798;9.698;2023-01-06T09:40:01;9.60;99.90
45535;DHT22;35892;48.798;9.698;2023-01-06T09:42:54;9.60;99.90
45535;DHT22;35892;48.798;9.698;2023-01-06T09:45:37;9.60;99.90
45535;DHT22;35892;48.798;9.698;2023-01-06T09:48:12;9.60;99.90
45535;DHT22;35892;48.798;9.698;2023-01-06T09:50:43;9.60;99.90
45535;DHT22;35892;48.798;9.698;2023-01-06T09:55:53;9.70;99.90
45535;DHT22;35892;48.798;9.698;2023-01-06T09:58:29;9.80;99.90
45535;DHT22;35892;48.798;9.698;2023-01-06T10:00:59;9.90;99.90
45535;DHT22;35892;48.798;9.698;2023-01-06T10:03:30;10.00;99.90
45535;DHT22;35892;48.798;9.698;2023-01-06T10:12:05;10.10;99.90
45535;DHT22;35892;48.798;9.698;2023-01-06T10:25:54;10.30;99.90
45535;DHT22;35892;48.798;9.698;2023-01-06T10:28:34;10.30;99.90
45535;DHT22;35892;48.798;9.698;2023-01-06T10:31:08;10.30;99.90
45535;DHT22;35892;48.798;9.698;2023-01-06T10:33:42;10.30;99.90
45535;DHT22;35892;48.798;9.698;2023-01-06T10:36:12;10.30;99.90
45535;DHT22;35892;48.798;9.698;2023-01-06T10:38:42;10.30;99.90
45535;DHT22;35892;48.798;9.698;2023-01-06T10:43:45;10.30;99.90
45535;DHT22;35892;48.798;9.698;2023-01-06T10:46:14;10.30;99.90
45535;DHT22;35892;48.798;9.698;2023-01-06T10:48:47;10.40;99.90
45535;DHT22;35892;48.798;9.698;2023-01-06T10:51:40;10.60;99.90
45535;DHT22;35892;48.798;9.698;2023-01-06T10:54:17;10.80;99.90
45535;DHT22;35892;48.798;9.698;2023-01-06T10:56:51;10.90;99.90
45535;DHT22;35892;48.798;9.698;2023-01-06T10:59:19;11.00;99.90
45535;DHT22;35892;48.798;9.698;2023-01-06T11:01:55;11.10;99.90
45535;DHT22;35892;48.798;9.698;2023-01-06T11:04:28;11.30;99.90
45535;DHT22;35892;48.798;9.698;2023-01-06T11:07:00;11.40;99.90
45535;DHT22;35892;48.798;9.698;2023-01-06T11:12:19;11.50;99.90
45535;DHT22;35892;48.798;9.698;2023-01-06T11:14:58;11.40;99.90
45535;DHT22;35892;48.798;9.698;2023-01-06T11:17:28;11.30;99.90
45535;DHT22;35892;48.798;9.698;2023-01-06T11:22:42;11.20;99.90
45535;DHT22;35892;48.798;9.698;2023-01-06T11:30:56;11.30;99.90
45535;DHT22;35892;48.798;9.698;2023-01-06T11:33:28;11.20;99.90
45535;DHT22;35892;48.798;9.698;2023-01-06T11:35:55;11.20;99.90
45535;DHT22;35892;48.798;9.698;2023-01-06T11:38:23;11.20;99.90
45535;DHT22;35892;48.798;9.698;2023-01-06T11:40:53;11.20;99.90
45535;DHT22;35892;48.798;9.698;2023-01-06T11:43:28;11.20;99.90
45535;DHT22;35892;48.798;9.698;2023-01-06T11:46:08;11.30;99.90
45535;DHT22;35892;48.798;9.698;2023-01-06T11:48:41;11.40;99.90
45535;DHT22;35892;48.798;9.698;2023-01-06T11:51:11;11.40;99.90
45535;DHT22;35892;48.798;9.698;2023-01-06T11:53:39;11.50;99.90
45535;DHT22;35892;48.798;9.698;2023-01-06T11:56:16;11.60;99.90
45535;DHT22;35892;48.798;9.698;2023-01-06T12:01:54;11.70;99.90
45535;DHT22;35892;48.798;9.698;2023-01-06T12:07:11;11.60;99.90
45535;DHT22;35892;48.798;9.698;2023-01-06T12:09:44;11.50;99.90
45535;DHT22;35892;48.798;9.698;2023-01-06T12:12:19;11.50;99.90
45535;DHT22;35892;48.798;9.698;2023-01-06T12:14:47;11.50;99.90
45535;DHT22;35892;48.798;9.698;2023-01-06T12:17:34;11.40;99.90
45535;DHT22;35892;48.798;9.698;2023-01-06T12:20:29;11.40;99.90
45535;DHT22;35892;48.798;9.698;2023-01-06T12:23:05;11.40;99.90
45535;DHT22;35892;48.798;9.698;2023-01-06T12:25:37;11.40;99.90
45535;DHT22;35892;48.798;9.698;2023-01-06T12:28:13;11.40;99.90
45535;DHT22;35892;48.798;9.698;2023-01-06T12:31:01;11.40;99.90
45535;DHT22;35892;48.798;9.698;2023-01-06T12:33:37;11.50;99.90
45535;DHT22;35892;48.798;9.698;2023-01-06T12:36:18;11.50;99.90
45535;DHT22;35892;48.798;9.698;2023-01-06T12:39:00;11.40;99.90
45535;DHT22;35892;48.798;9.698;2023-01-06T12:42:00;11.40;99.90
45535;DHT22;35892;48.798;9.698;2023-01-06T12:44:44;11.40;99.90
45535;DHT22;35892;48.798;9.698;2023-01-06T12:50:42;11.40;99.90
45535;DHT22;35892;48.798;9.698;2023-01-06T12:56:17;11.40;99.90
45535;DHT22;35892;48.798;9.698;2023-01-06T12:59:17;11.40;99.90
45535;DHT22;35892;48.798;9.698;2023-01-06T13:17:54;11.50;99.90
45535;DHT22;35892;48.798;9.698;2023-01-06T13:20:31;11.40;99.90
45535;DHT22;35892;48.798;9.698;2023-01-06T13:39:59;11.60;99.90
45535;DHT22;35892;48.798;9.698;2023-01-06T13:42:32;11.60;99.90
45535;DHT22;35892;48.798;9.698;2023-01-06T13:45:04;11.60;99.90
45535;DHT22;35892;48.798;9.698;2023-01-06T13:47:36;11.50;99.90
45535;DHT22;35892;48.798;9.698;2023-01-06T13:50:04;11.50;99.90
45535;DHT22;35892;48.798;9.698;2023-01-06T13:52:33;11.50;99.90
45535;DHT22;35892;48.798;9.698;2023-01-06T13:55:23;11.50;99.90
45535;DHT22;35892;48.798;9.698;2023-01-06T13:57:51;11.50;99.90
45535;DHT22;35892;48.798;9.698;2023-01-06T14:00:21;11.50;99.90
45535;DHT22;35892;48.798;9.698;2023-01-06T14:07:54;11.50;99.90
45535;DHT22;35892;48.798;9.698;2023-01-06T14:10:34;11.40;99.90
45535;DHT22;35892;48.798;9.698;2023-01-06T14:13:22;11.40;99.90
45535;DHT22;35892;48.798;9.698;2023-01-06T14:16:04;11.30;99.90
45535;DHT22;35892;48.798;9.698;2023-01-06T14:18:44;11.30;99.90
45535;DHT22;35892;48.798;9.698;2023-01-06T14:26:58;11.20;99.90
45535;DHT22;35892;48.798;9.698;2023-01-06T14:30:00;11.10;99.90
45535;DHT22;35892;48.798;9.698;2023-01-06T14:35:10;11.10;99.90
45535;DHT22;35892;48.798;9.698;2023-01-06T14:37:49;11.10;99.90
45535;DHT22;35892;48.798;9.698;2023-01-06T14:40:28;11.00;99.90
45535;DHT22;35892;48.798;9.698;2023-01-06T14:42:59;10.90;99.90
45535;DHT22;35892;48.798;9.698;2023-01-06T14:45:35;10.90;99.90
45535;DHT22;35892;48.798;9.698;2023-01-06T14:48:13;10.90;99.90
45535;DHT22;35892;48.798;9.698;2023-01-06T14:50:52;10.90;99.90
45535;DHT22;35892;48.798;9.698;2023-01-06T14:53:36;11.00;99.90
45535;DHT22;35892;48.798;9.698;2023-01-06T14:56:05;10.90;99.90
45535;DHT22;35892;48.798;9.698;2023-01-06T14:58:35;10.80;99.90
45535;DHT22;35892;48.798;9.698;2023-01-06T15:01:30;10.80;99.90
45535;DHT22;35892;48.798;9.698;2023-01-06T15:04:01;10.80;99.90
45535;DHT22;35892;48.798;9.698;2023-01-06T15:06:31;10.70;99.90
45535;DHT22;35892;48.798;9.698;2023-01-06T15:09:19;10.70;99.90
45535;DHT22;35892;48.798;9.698;2023-01-06T15:11:52;10.70;99.90
45535;DHT22;35892;48.798;9.698;2023-01-06T15:17:10;10.60;99.90
45535;DHT22;35892;48.798;9.698;2023-01-06T15:19:42;10.60;99.90
45535;DHT22;35892;48.798;9.698;2023-01-06T15:22:09;10.60;99.90
45535;DHT22;35892;48.798;9.698;2023-01-06T15:24:41;10.50;99.90
45535;DHT22;35892;48.798;9.698;2023-01-06T15:27:13;10.50;99.90
45535;DHT22;35892;48.798;9.698;2023-01-06T15:29:52;10.50;99.90
45535;DHT22;35892;48.798;9.698;2023-01-06T15:32:20;10.50;99.90
45535;DHT22;35892;48.798;9.698;2023-01-06T15:34:50;10.50;99.90
45535;DHT22;35892;48.798;9.698;2023-01-06T15:37:21;10.50;99.90
45535;DHT22;35892;48.798;9.698;2023-01-06T15:39:52;10.50;99.90
45535;DHT22;35892;48.798;9.698;2023-01-06T15:42:23;10.40;99.90
45535;DHT22;35892;48.798;9.698;2023-01-06T15:44:58;10.50;99.90
45535;DHT22;35892;48.798;9.698;2023-01-06T15:50:01;10.50;99.90
45535;DHT22;35892;48.798;9.698;2023-01-06T15:52:49;10.40;99.90
45535;DHT22;35892;48.798;9.698;2023-01-06T15:55:24;10.40;99.90
45535;DHT22;35892;48.798;9.698;2023-01-06T15:58:06;10.30;99.90
45535;DHT22;35892;48.798;9.698;2023-01-06T16:00:48;10.40;99.90
45535;DHT22;35892;48.798;9.698;2023-01-06T16:03:21;10.30;99.90
45535;DHT22;35892;48.798;9.698;2023-01-06T16:05:50;10.30;99.90
45535;DHT22;35892;48.798;9.698;2023-01-06T16:08:38;10.20;99.90
45535;DHT22;35892;48.798;9.698;2023-01-06T16:11:25;10.30;99.90
45535;DHT22;35892;48.798;9.698;2023-01-06T16:14:29;10.30;99.90
45535;DHT22;35892;48.798;9.698;2023-01-06T16:19:33;10.20;99.90
45535;DHT22;35892;48.798;9.698;2023-01-06T16:22:07;10.20;99.90
45535;DHT22;35892;48.798;9.698;2023-01-06T16:24:36;10.10;99.90
45535;DHT22;35892;48.798;9.698;2023-01-06T16:27:04;10.10;99.90
45535;DHT22;35892;48.798;9.698;2023-01-06T16:29:37;10.10;99.90
45535;DHT22;35892;48.798;9.698;2023-01-06T16:32:26;10.20;99.90
45535;DHT22;35892;48.798;9.698;2023-01-06T16:35:00;10.10;99.90
45535;DHT22;35892;48.798;9.698;2023-01-06T16:37:32;10.10;99.90
45535;DHT22;35892;48.798;9.698;2023-01-06T16:40:02;10.10;99.90
45535;DHT22;35892;48.798;9.698;2023-01-06T16:42:33;10.10;99.90
45535;DHT22;35892;48.798;9.698;2023-01-06T16:45:28;10.10;99.90
45535;DHT22;35892;48.798;9.698;2023-01-06T16:48:00;10.10;99.90
45535;DHT22;35892;48.798;9.698;2023-01-06T16:50:32;10.00;99.90
45535;DHT22;35892;48.798;9.698;2023-01-06T16:53:14;10.00;99.90
45535;DHT22;35892;48.798;9.698;2023-01-06T16:55:43;10.00;99.90
45535;DHT22;35892;48.798;9.698;2023-01-06T16:58:15;9.90;99.90
45535;DHT22;35892;48.798;9.698;2023-01-06T17:00:46;9.90;99.90
45535;DHT22;35892;48.798;9.698;2023-01-06T17:03:26;9.90;99.90
45535;DHT22;35892;48.798;9.698;2023-01-06T17:05:54;9.90;99.90
45535;DHT22;35892;48.798;9.698;2023-01-06T17:08:33;9.90;99.90
45535;DHT22;35892;48.798;9.698;2023-01-06T17:13:43;9.80;99.90
45535;DHT22;35892;48.798;9.698;2023-01-06T17:16:17;9.80;99.90
45535;DHT22;35892;48.798;9.698;2023-01-06T17:21:35;9.70;99.90
45535;DHT22;35892;48.798;9.698;2023-01-06T17:27:20;9.60;99.90
45535;DHT22;35892;48.798;9.698;2023-01-06T17:29:49;9.50;99.90
45535;DHT22;35892;48.798;9.698;2023-01-06T17:32:22;9.50;99.90
45535;DHT22;35892;48.798;9.698;2023-01-06T17:34:51;9.40;99.90
45535;DHT22;35892;48.798;9.698;2023-01-06T17:37:21;9.40;99.90
45535;DHT22;35892;48.798;9.698;2023-01-06T17:39:51;9.30;99.90
45535;DHT22;35892;48.798;9.698;2023-01-06T17:42:31;9.10;99.90
45535;DHT22;35892;48.798;9.698;2023-01-06T17:44:59;9.10;99.90
45535;DHT22;35892;48.798;9.698;2023-01-06T17:47:28;9.10;99.90
45535;DHT22;35892;48.798;9.698;2023-01-06T17:49:59;9.10;99.90
45535;DHT22;35892;48.798;9.698;2023-01-06T17:52:36;9.00;99.90
45535;DHT22;35892;48.798;9.698;2023-01-06T17:57:54;8.90;99.90
45535;DHT22;35892;48.798;9.698;2023-01-06T18:00:33;8.80;99.90
45535;DHT22;35892;48.798;9.698;2023-01-06T18:03:05;8.70;99.90
45535;DHT22;35892;48.798;9.698;2023-01-06T18:10:34;8.50;99.90
45535;DHT22;35892;48.798;9.698;2023-01-06T18:15:45;8.50;99.90
45535;DHT22;35892;48.798;9.698;2023-01-06T18:18:23;8.50;99.90
45535;DHT22;35892;48.798;9.698;2023-01-06T18:20:57;8.40;99.90
45535;DHT22;35892;48.798;9.698;2023-01-06T18:23:26;8.50;99.90
45535;DHT22;35892;48.798;9.698;2023-01-06T18:25:59;8.50;99.90
45535;DHT22;35892;48.798;9.698;2023-01-06T18:28:27;8.50;99.90
45535;DHT22;35892;48.798;9.698;2023-01-06T18:31:00;8.60;99.90
45535;DHT22;35892;48.798;9.698;2023-01-06T18:33:30;8.60;99.90
45535;DHT22;35892;48.798;9.698;2023-01-06T18:35:59;8.60;99.90
45535;DHT22;35892;48.798;9.698;2023-01-06T18:38:29;8.70;99.90
45535;DHT22;35892;48.798;9.698;2023-01-06T18:40:58;8.70;99.90
45535;DHT22;35892;48.798;9.698;2023-01-06T18:43:29;8.70;99.90
45535;DHT22;35892;48.798;9.698;2023-01-06T18:46:13;8.70;99.90
45535;DHT22;35892;48.798;9.698;2023-01-06T18:48:41;8.80;99.90
45535;DHT22;35892;48.798;9.698;2023-01-06T18:51:21;8.80;99.90
45535;DHT22;35892;48.798;9.698;2023-01-06T18:53:50;8.90;99.90
45535;DHT22;35892;48.798;9.698;2023-01-06T18:58:51;8.80;99.90
45535;DHT22;35892;48.798;9.698;2023-01-06T19:01:22;8.90;99.90
45535;DHT22;35892;48.798;9.698;2023-01-06T19:06:42;8.80;99.90
45535;DHT22;35892;48.798;9.698;2023-01-06T19:09:39;8.80;99.90
45535;DHT22;35892;48.798;9.698;2023-01-06T19:12:30;8.80;99.90
45535;DHT22;35892;48.798;9.698;2023-01-06T19:15:00;8.90;99.90
45535;DHT22;35892;48.798;9.698;2023-01-06T19:17:39;8.80;99.90